Aérodrome :
LOGIN :

S'inscrire | Disclaimer

   EN    FR    IT 

 










Légende :    VFR   VFR Marginal   IFR   IFR Intensif   IFR Très Intensif
Visi : 
Plafond : 
>= 8 km
>= 3000ft
5 à 8 km
1000 à 3000 ft
1500m à 5 km
500 à 1000 ft
800 à 1500m
200 à 500 ft
< 800m
< 200 ft
Symboles :   Orages  Brouillard  Fortes neiges  Fortes précipitations  Vent > 20 kt
SIGMETs :   Divers  Orages  Givrage  Turbulence  Onde Orograph.  Cendres Volcan.







- Altitude de l'aérodrome : 1411 ft
- Code IATA : GVA


LSGG - Genève Cointrin

DERNIER METAR :
  • 230150Z AUTO 24006KT 9999 NSC 17/06 Q1018 NOSIG

METARs EXPIRÉS :
  • 230120Z AUTO 22006KT 9999 FEW085 BKN140 15/07 Q1018 NOSIG
  • 230050Z AUTO 22004KT 9999 FEW080 OVC140 14/07 Q1018 NOSIG
  • 230020Z AUTO 25003KT CAVOK 15/06 Q1018 NOSIG
  • 222350Z AUTO 24005KT CAVOK 17/06 Q1018 NOSIG
  • 222320Z AUTO 21004KT 9999 NSC 16/06 Q1018 NOSIG

TAF TAF LSGG
Valide du 23 à 00h jusqu'au 24 à 06h UTC


222325Z 2300/2406 23009KT 9999 FEW040 TX23/2315Z TN12/2305Z TN10/2405Z
TEMPO 2311/2318 SHRA SCT040TCU BKN060
ATIS : +41 22 417 40 81
Pas de NOTAMs connus pour ce terrain.



MET'MAP, la Météo Aéronautique d'un coup d'oeil ! - Copyright ORBIFLY Décembre 2007 - Disclaimer

ORBIFLY MET'MAP TEAM :

Programmation & Développement : Alexandra Zaïnal
Conception & Développement : Baudouin d'Aumeries
Co-Programmation & Développement : Marc-Olivier Méhu
Soutien technique & logistique : Manuel Goepfert

Contact : metmap@orbifly.com




SOURCES & CREDITS :

   NOAA